createdAt,value
2022-11-27T00:01:48.616Z,3.00
2022-11-27T00:04:20.366Z,3.00
2022-11-27T00:06:52.113Z,3.00
2022-11-27T00:09:25.219Z,3.00
2022-11-27T00:11:56.954Z,3.00
2022-11-27T00:14:31.053Z,3.00
2022-11-27T00:17:05.337Z,3.00
2022-11-27T00:19:37.346Z,3.00
2022-11-27T00:22:09.416Z,3.00
2022-11-27T00:24:41.383Z,3.00
2022-11-27T00:27:13.322Z,3.00
2022-11-27T00:29:45.408Z,3.00
2022-11-27T00:32:17.153Z,2.90
2022-11-27T00:34:48.886Z,3.00
2022-11-27T00:37:20.653Z,3.00
2022-11-27T00:39:54.759Z,3.00
2022-11-27T00:42:26.546Z,3.00
2022-11-27T00:45:00.530Z,3.00
2022-11-27T00:47:32.291Z,3.00
2022-11-27T00:50:04.429Z,3.00
2022-11-27T00:52:36.185Z,3.00
2022-11-27T00:55:10.876Z,3.00
2022-11-27T00:57:42.650Z,2.90
2022-11-27T01:00:14.663Z,2.90
2022-11-27T01:02:46.640Z,2.90
2022-11-27T01:05:18.439Z,2.90
2022-11-27T01:07:50.283Z,2.90
2022-11-27T01:10:22.039Z,2.90
2022-11-27T01:12:53.807Z,2.90
2022-11-27T01:15:25.508Z,2.90
2022-11-27T01:17:57.265Z,2.90
2022-11-27T01:20:28.943Z,2.90
2022-11-27T01:23:00.720Z,2.90
2022-11-27T01:25:34.001Z,2.80
2022-11-27T01:28:05.732Z,2.90
2022-11-27T01:30:38.095Z,2.90
2022-11-27T01:33:09.838Z,2.80
2022-11-27T01:35:41.558Z,2.80
2022-11-27T01:38:13.295Z,2.80
2022-11-27T01:40:45.076Z,2.90
2022-11-27T01:43:17.171Z,2.90
2022-11-27T01:45:48.927Z,2.90
2022-11-27T01:48:23.080Z,2.90
2022-11-27T01:50:54.824Z,2.90
2022-11-27T01:53:26.666Z,3.00
2022-11-27T01:56:00.145Z,2.90
2022-11-27T01:58:32.177Z,2.90
2022-11-27T02:01:05.040Z,3.00
2022-11-27T02:03:37.238Z,3.00
2022-11-27T02:06:12.332Z,3.00
2022-11-27T02:08:44.704Z,3.00
2022-11-27T02:11:21.523Z,3.00
2022-11-27T02:14:16.951Z,3.00
2022-11-27T02:16:55.166Z,2.90
2022-11-27T02:19:47.439Z,2.90
2022-11-27T02:22:19.171Z,2.90
2022-11-27T02:24:56.667Z,2.80
2022-11-27T02:27:34.697Z,2.80
2022-11-27T02:30:07.030Z,2.80
2022-11-27T02:32:46.510Z,2.80
2022-11-27T02:35:20.520Z,2.80
2022-11-27T02:37:52.204Z,2.90
2022-11-27T02:40:30.083Z,2.80
2022-11-27T02:43:10.258Z,2.90
2022-11-27T02:45:46.721Z,2.90
2022-11-27T02:48:27.164Z,2.90
2022-11-27T02:50:59.100Z,2.90
2022-11-27T02:53:38.002Z,2.90
2022-11-27T02:56:11.920Z,2.90
2022-11-27T02:58:46.055Z,2.90
2022-11-27T03:01:18.983Z,3.00
2022-11-27T03:03:55.653Z,2.90
2022-11-27T03:06:31.927Z,2.90
2022-11-27T03:09:08.966Z,3.00
2022-11-27T03:11:40.947Z,3.00
2022-11-27T03:14:15.687Z,3.00
2022-11-27T03:16:50.221Z,3.00
2022-11-27T03:19:34.997Z,3.00
2022-11-27T03:22:06.784Z,3.00
2022-11-27T03:24:38.987Z,3.10
2022-11-27T03:27:13.835Z,3.10
2022-11-27T03:29:47.899Z,3.10
2022-11-27T03:32:20.087Z,3.10
2022-11-27T03:34:54.727Z,3.10
2022-11-27T03:37:27.027Z,3.10
2022-11-27T03:40:03.727Z,3.10
2022-11-27T03:42:46.523Z,3.20
2022-11-27T03:45:33.926Z,3.10
2022-11-27T03:48:08.926Z,3.20
2022-11-27T03:50:46.781Z,3.20
2022-11-27T03:53:27.441Z,3.20
2022-11-27T03:56:17.896Z,3.20
2022-11-27T03:58:49.671Z,3.20
2022-11-27T04:01:23.267Z,3.30
2022-11-27T04:03:55.119Z,3.30
2022-11-27T04:06:26.873Z,3.30
2022-11-27T04:09:00.818Z,3.30
2022-11-27T04:11:32.828Z,3.30
2022-11-27T04:14:04.954Z,3.30
2022-11-27T04:16:36.745Z,3.30
2022-11-27T04:19:09.538Z,3.30
2022-11-27T04:21:41.373Z,3.40
2022-11-27T04:24:13.226Z,3.40
2022-11-27T04:26:44.928Z,3.40
2022-11-27T04:29:16.727Z,3.40
2022-11-27T04:31:48.514Z,3.40
2022-11-27T04:34:20.388Z,3.40
2022-11-27T04:36:52.134Z,3.40
2022-11-27T04:39:23.921Z,3.40
2022-11-27T04:41:55.661Z,3.40
2022-11-27T04:44:27.410Z,3.40
2022-11-27T04:47:01.595Z,3.40
2022-11-27T04:49:33.442Z,3.40
2022-11-27T04:52:05.352Z,3.40
2022-11-27T04:54:37.418Z,3.40
2022-11-27T04:57:09.149Z,3.40
2022-11-27T04:59:41.034Z,3.40
2022-11-27T05:02:12.769Z,3.40
2022-11-27T05:04:47.060Z,3.40
2022-11-27T05:07:18.827Z,3.40
2022-11-27T05:09:50.816Z,3.40
2022-11-27T05:12:22.626Z,3.40
2022-11-27T05:14:54.443Z,3.40
2022-11-27T05:17:26.186Z,3.40
2022-11-27T05:19:57.964Z,3.40
2022-11-27T05:22:29.731Z,3.40
2022-11-27T05:25:04.217Z,3.40
2022-11-27T05:27:38.338Z,3.40
2022-11-27T05:30:10.215Z,3.40
2022-11-27T05:32:41.942Z,3.40
2022-11-27T05:35:13.720Z,3.30
2022-11-27T05:37:45.426Z,3.30
2022-11-27T05:40:17.198Z,3.20
2022-11-27T05:42:48.931Z,3.20
2022-11-27T05:45:20.838Z,3.10
2022-11-27T05:47:52.555Z,3.10
2022-11-27T05:50:24.421Z,3.10
2022-11-27T05:52:58.250Z,3.10
2022-11-27T05:55:32.151Z,3.10
2022-11-27T05:58:04.023Z,3.10
2022-11-27T06:00:35.792Z,3.20
2022-11-27T06:03:07.640Z,3.20
2022-11-27T06:05:40.306Z,3.20
2022-11-27T06:08:12.012Z,3.20
2022-11-27T06:10:45.977Z,3.20
2022-11-27T06:13:17.684Z,3.20
2022-11-27T06:15:49.491Z,3.20
2022-11-27T06:18:24.066Z,3.20
2022-11-27T06:20:55.901Z,3.20
2022-11-27T06:23:27.694Z,3.20
2022-11-27T06:25:59.464Z,3.20
2022-11-27T06:28:31.152Z,3.20
2022-11-27T06:31:17.507Z,3.20
2022-11-27T06:33:50.732Z,3.20
2022-11-27T06:36:23.947Z,3.20
2022-11-27T06:38:55.702Z,3.20
2022-11-27T06:41:28.200Z,3.20
2022-11-27T06:44:05.581Z,3.30
2022-11-27T06:46:39.705Z,3.30
2022-11-27T06:49:12.836Z,3.30
2022-11-27T06:51:44.580Z,3.30
2022-11-27T06:54:18.776Z,3.30
2022-11-27T06:56:50.935Z,3.30
2022-11-27T06:59:22.677Z,3.30
2022-11-27T07:01:54.603Z,3.30
2022-11-27T07:04:26.395Z,3.30
2022-11-27T07:06:58.894Z,3.30
2022-11-27T07:09:30.631Z,3.30
2022-11-27T07:12:04.129Z,3.20
2022-11-27T07:14:38.535Z,3.30
2022-11-27T07:17:10.442Z,3.30
2022-11-27T07:19:42.175Z,3.30
2022-11-27T07:22:13.960Z,3.30
2022-11-27T07:24:45.708Z,3.30
2022-11-27T07:27:17.467Z,3.30
2022-11-27T07:29:49.245Z,3.30
2022-11-27T07:32:21.015Z,3.40
2022-11-27T07:34:54.884Z,3.40
2022-11-27T07:37:26.659Z,3.50
2022-11-27T07:40:02.945Z,3.50
2022-11-27T07:42:39.171Z,3.50
2022-11-27T07:45:11.312Z,3.60
2022-11-27T07:47:47.406Z,3.60
2022-11-27T07:50:19.611Z,3.60
2022-11-27T07:52:51.717Z,3.60
2022-11-27T07:55:26.134Z,3.60
2022-11-27T07:57:57.951Z,3.50
2022-11-27T08:00:34.352Z,3.40
2022-11-27T08:03:06.185Z,3.50
2022-11-27T08:05:40.171Z,3.50
2022-11-27T08:08:11.949Z,3.50
2022-11-27T08:10:43.823Z,3.50
2022-11-27T08:13:15.643Z,3.50
2022-11-27T08:15:48.193Z,3.50
2022-11-27T08:18:20.074Z,3.50
2022-11-27T08:20:51.844Z,3.60
2022-11-27T08:23:23.600Z,3.60
2022-11-27T08:25:55.339Z,3.60
2022-11-27T08:28:27.137Z,3.60
2022-11-27T08:31:04.726Z,3.60
2022-11-27T08:33:36.733Z,3.70
2022-11-27T08:36:16.283Z,3.70
2022-11-27T08:38:52.186Z,3.70
2022-11-27T08:41:23.906Z,3.70
2022-11-27T08:43:57.854Z,3.60
2022-11-27T08:46:29.592Z,3.60
2022-11-27T08:49:01.366Z,3.60
2022-11-27T08:51:33.131Z,3.60
2022-11-27T08:54:05.101Z,3.70
2022-11-27T08:56:36.849Z,3.70
2022-11-27T08:59:08.737Z,3.70
2022-11-27T09:01:40.623Z,3.70
2022-11-27T09:04:13.732Z,3.70
2022-11-27T09:06:45.836Z,3.70
2022-11-27T09:09:17.656Z,3.70
2022-11-27T09:11:49.673Z,3.70
2022-11-27T09:14:23.873Z,3.80
2022-11-27T09:16:55.652Z,3.90
2022-11-27T09:19:27.592Z,3.90
2022-11-27T09:21:59.659Z,3.90
2022-11-27T09:24:33.943Z,3.90
2022-11-27T09:27:05.713Z,3.90
2022-11-27T09:29:37.632Z,4.00
2022-11-27T09:32:09.485Z,4.00
2022-11-27T09:34:41.638Z,4.00
2022-11-27T09:37:13.536Z,4.00
2022-11-27T09:39:45.523Z,4.00
2022-11-27T09:42:28.507Z,4.10
2022-11-27T09:45:00.859Z,4.10
2022-11-27T09:47:41.578Z,4.20
2022-11-27T09:50:25.064Z,4.20
2022-11-27T09:52:59.424Z,4.30
2022-11-27T09:55:39.085Z,4.30
2022-11-27T09:58:16.856Z,4.40
2022-11-27T10:00:48.710Z,4.50
2022-11-27T10:03:25.898Z,4.50
2022-11-27T10:06:06.190Z,4.60
2022-11-27T10:08:37.930Z,4.70
2022-11-27T10:11:19.413Z,4.90
2022-11-27T10:14:08.525Z,4.90
2022-11-27T10:16:48.843Z,5.00
2022-11-27T10:19:39.062Z,5.10
2022-11-27T10:22:29.574Z,5.10
2022-11-27T10:25:07.357Z,5.20
2022-11-27T10:27:43.118Z,5.30
2022-11-27T10:30:19.032Z,5.30
2022-11-27T10:32:55.825Z,5.40
2022-11-27T10:35:29.041Z,5.40
2022-11-27T10:38:06.743Z,5.50
2022-11-27T10:40:45.925Z,5.60
2022-11-27T10:43:19.631Z,5.60
2022-11-27T10:45:54.504Z,5.60
2022-11-27T10:48:28.572Z,5.60
2022-11-27T10:51:00.596Z,5.70
2022-11-27T10:53:35.457Z,5.80
2022-11-27T10:56:10.643Z,5.80
2022-11-27T10:58:54.702Z,5.80
2022-11-27T11:01:28.296Z,5.80
2022-11-27T11:04:31.335Z,5.80
2022-11-27T11:07:01.234Z,5.80
2022-11-27T11:09:36.140Z,5.90
2022-11-27T11:12:08.859Z,5.90
2022-11-27T11:14:50.185Z,5.90
2022-11-27T11:17:26.584Z,6.00
2022-11-27T11:20:01.303Z,6.00
2022-11-27T11:22:34.782Z,6.00
2022-11-27T11:25:16.411Z,6.00
2022-11-27T11:27:49.230Z,6.10
2022-11-27T11:30:25.944Z,6.10
2022-11-27T11:33:02.382Z,6.10
2022-11-27T11:35:37.593Z,6.20
2022-11-27T11:38:17.082Z,6.20
2022-11-27T11:40:59.921Z,6.30
2022-11-27T11:43:34.333Z,6.30
2022-11-27T11:46:17.144Z,6.30
2022-11-27T11:48:55.109Z,6.40
2022-11-27T11:51:51.167Z,6.50
2022-11-27T11:54:25.939Z,6.50
2022-11-27T11:57:00.197Z,6.50
2022-11-27T11:59:46.033Z,6.50
2022-11-27T12:02:41.418Z,6.50
2022-11-27T12:05:32.065Z,6.60
2022-11-27T12:08:15.530Z,6.60
2022-11-27T12:10:50.300Z,6.50
2022-11-27T12:13:33.180Z,6.60
2022-11-27T12:16:15.335Z,6.60
2022-11-27T12:19:05.891Z,6.60
2022-11-27T12:21:56.210Z,6.70
2022-11-27T12:24:51.367Z,6.70
2022-11-27T12:27:26.149Z,6.80
2022-11-27T12:30:10.547Z,6.90
2022-11-27T12:32:48.360Z,7.10
2022-11-27T12:35:26.212Z,7.20
2022-11-27T12:37:57.906Z,7.40
2022-11-27T12:40:45.180Z,7.40
2022-11-27T12:43:26.096Z,7.40
2022-11-27T12:45:57.940Z,7.40
2022-11-27T12:48:29.693Z,7.30
2022-11-27T12:51:07.888Z,7.30
2022-11-27T12:53:42.968Z,7.20
2022-11-27T12:56:16.039Z,7.10
2022-11-27T12:59:03.141Z,7.00
2022-11-27T13:01:47.670Z,6.80
2022-11-27T13:04:22.580Z,6.70
2022-11-27T13:06:58.042Z,6.70
2022-11-27T13:09:51.167Z,6.60
2022-11-27T13:12:26.236Z,6.50
2022-11-27T13:15:04.505Z,6.40
2022-11-27T13:17:41.538Z,6.20
2022-11-27T13:20:15.513Z,6.10
2022-11-27T13:22:48.152Z,5.90
2022-11-27T13:25:19.901Z,5.80
2022-11-27T13:27:53.005Z,5.70
2022-11-27T13:30:27.499Z,5.60
2022-11-27T13:33:03.174Z,5.60
2022-11-27T13:35:36.515Z,5.60
2022-11-27T13:38:10.159Z,5.50
2022-11-27T13:40:46.930Z,5.50
2022-11-27T13:43:37.553Z,5.40
2022-11-27T13:46:16.241Z,5.30
2022-11-27T13:48:56.176Z,5.30
2022-11-27T13:51:29.898Z,5.20
2022-11-27T13:54:10.628Z,5.10
2022-11-27T13:56:42.634Z,5.00
2022-11-27T13:59:19.150Z,5.00
2022-11-27T14:01:58.616Z,4.90
2022-11-27T14:04:33.294Z,4.80
2022-11-27T14:07:07.020Z,4.80
2022-11-27T14:09:41.221Z,4.70
2022-11-27T14:12:35.351Z,4.70
2022-11-27T14:15:20.503Z,4.70
2022-11-27T14:17:53.948Z,4.60
2022-11-27T14:20:36.175Z,4.60
2022-11-27T14:23:13.642Z,4.50
2022-11-27T14:25:45.770Z,4.50
2022-11-27T14:28:21.976Z,4.50
2022-11-27T14:30:55.467Z,4.50
2022-11-27T14:33:28.503Z,4.40
2022-11-27T14:36:05.008Z,4.40
2022-11-27T14:38:36.969Z,4.40
2022-11-27T14:41:10.157Z,4.40
2022-11-27T14:43:42.023Z,4.30
2022-11-27T14:46:18.495Z,4.30
2022-11-27T14:48:57.256Z,4.30
2022-11-27T14:51:30.339Z,4.30
2022-11-27T14:54:05.720Z,4.30
2022-11-27T14:56:42.206Z,4.30
2022-11-27T14:59:15.363Z,4.40
2022-11-27T15:01:58.210Z,4.40
2022-11-27T15:04:29.980Z,4.40
2022-11-27T15:07:05.128Z,4.40
2022-11-27T15:09:36.949Z,4.30
2022-11-27T15:12:18.633Z,4.40
2022-11-27T15:14:54.207Z,4.40
2022-11-27T15:17:27.700Z,4.40
2022-11-27T15:20:00.131Z,4.30
2022-11-27T15:22:33.760Z,4.40
2022-11-27T15:25:08.638Z,4.40
2022-11-27T15:27:47.081Z,4.40
2022-11-27T15:30:21.222Z,4.40
2022-11-27T15:32:53.690Z,4.40
2022-11-27T15:35:29.904Z,4.40
2022-11-27T15:38:08.765Z,4.30
2022-11-27T15:40:40.977Z,4.40
2022-11-27T15:43:13.641Z,4.30
2022-11-27T15:45:45.462Z,4.30
2022-11-27T15:48:18.203Z,4.40
2022-11-27T15:50:52.384Z,4.40
2022-11-27T15:53:24.135Z,4.40
2022-11-27T15:55:59.831Z,4.40
2022-11-27T15:58:31.589Z,4.30
2022-11-27T16:01:05.285Z,4.40
2022-11-27T16:03:37.352Z,4.40
2022-11-27T16:06:09.232Z,4.40
2022-11-27T16:08:40.991Z,4.30
2022-11-27T16:11:19.558Z,4.40
2022-11-27T16:13:51.525Z,4.40
2022-11-27T16:16:24.126Z,4.40
2022-11-27T16:18:56.714Z,4.30
2022-11-27T16:21:30.184Z,4.30
2022-11-27T16:24:03.714Z,4.40
2022-11-27T16:26:36.958Z,4.40
2022-11-27T16:29:09.206Z,4.40
2022-11-27T16:31:41.057Z,4.40
2022-11-27T16:34:16.857Z,4.40
2022-11-27T16:36:48.650Z,4.40
2022-11-27T16:39:20.486Z,4.30
2022-11-27T16:41:52.194Z,4.30
2022-11-27T16:44:24.091Z,4.30
2022-11-27T16:46:57.993Z,4.20
2022-11-27T16:49:29.867Z,4.20
2022-11-27T16:52:04.018Z,4.20
2022-11-27T16:54:35.880Z,4.20
2022-11-27T16:57:07.604Z,4.20
2022-11-27T16:59:39.333Z,4.20
2022-11-27T17:02:11.185Z,4.20
2022-11-27T17:04:43.177Z,4.20
2022-11-27T17:07:15.064Z,4.20
2022-11-27T17:09:49.382Z,4.20
2022-11-27T17:12:21.110Z,4.20
2022-11-27T17:14:55.132Z,4.20
2022-11-27T17:17:26.916Z,4.20
2022-11-27T17:20:00.619Z,4.30
2022-11-27T17:22:34.878Z,4.20
2022-11-27T17:25:11.688Z,4.30
2022-11-27T17:27:43.956Z,4.30
2022-11-27T17:30:15.930Z,4.30
2022-11-27T17:32:47.655Z,4.20
2022-11-27T17:35:19.500Z,4.20
2022-11-27T17:37:51.269Z,4.20
2022-11-27T17:40:23.091Z,4.10
2022-11-27T17:42:54.814Z,4.10
2022-11-27T17:45:28.755Z,4.10
2022-11-27T17:48:00.537Z,4.10
2022-11-27T17:50:32.409Z,4.10
2022-11-27T17:53:04.216Z,4.00
2022-11-27T17:55:36.007Z,4.00
2022-11-27T17:58:07.718Z,4.00
2022-11-27T18:00:40.244Z,4.00
2022-11-27T18:03:12.045Z,4.00
2022-11-27T18:05:43.837Z,4.00
2022-11-27T18:08:17.796Z,4.00
2022-11-27T18:10:49.826Z,4.10
2022-11-27T18:13:21.592Z,4.10
2022-11-27T18:15:55.463Z,4.00
2022-11-27T18:18:27.195Z,4.10
2022-11-27T18:21:04.477Z,4.10
2022-11-27T18:23:49.639Z,4.10
2022-11-27T18:26:52.430Z,4.10
2022-11-27T18:29:22.309Z,4.10
2022-11-27T18:31:54.359Z,4.00
2022-11-27T18:34:28.278Z,4.00
2022-11-27T18:37:00.973Z,4.00
2022-11-27T18:39:33.275Z,4.00
2022-11-27T18:42:05.585Z,4.00
2022-11-27T18:44:44.251Z,4.00
2022-11-27T18:47:17.256Z,4.00
2022-11-27T18:49:49.303Z,4.00
2022-11-27T18:52:21.194Z,3.90
2022-11-27T18:54:55.424Z,3.90
2022-11-27T18:57:29.492Z,3.90
2022-11-27T19:00:03.663Z,3.90
2022-11-27T19:02:35.631Z,3.90
2022-11-27T19:05:07.769Z,3.90
2022-11-27T19:07:39.756Z,3.90
2022-11-27T19:10:11.662Z,3.90
2022-11-27T19:12:43.862Z,3.90
2022-11-27T19:15:15.621Z,3.90
2022-11-27T19:17:49.742Z,3.90
2022-11-27T19:20:22.006Z,3.90
2022-11-27T19:22:53.829Z,3.90
2022-11-27T19:25:27.990Z,4.00
2022-11-27T19:28:02.095Z,4.00
2022-11-27T19:30:40.661Z,4.00
2022-11-27T19:33:12.616Z,4.00
2022-11-27T19:35:44.439Z,4.00
2022-11-27T19:38:16.344Z,4.00
2022-11-27T19:40:48.086Z,4.00
2022-11-27T19:43:19.932Z,4.00
2022-11-27T19:45:51.874Z,4.00
2022-11-27T19:48:24.102Z,4.00
2022-11-27T19:51:00.831Z,4.00
2022-11-27T19:53:33.669Z,4.00
2022-11-27T19:56:05.657Z,4.00
2022-11-27T19:58:38.003Z,4.00
2022-11-27T20:01:11.027Z,3.90
2022-11-27T20:03:43.042Z,3.90
2022-11-27T20:06:19.102Z,3.90
2022-11-27T20:08:52.231Z,3.90
2022-11-27T20:11:26.679Z,3.90
2022-11-27T20:14:02.293Z,3.90
2022-11-27T20:16:35.938Z,3.90
2022-11-27T20:19:09.034Z,3.90
2022-11-27T20:21:42.192Z,3.90
2022-11-27T20:24:14.374Z,3.80
2022-11-27T20:26:46.147Z,3.90
2022-11-27T20:29:18.331Z,3.90
2022-11-27T20:31:50.162Z,3.80
2022-11-27T20:34:22.399Z,3.80
2022-11-27T20:36:54.302Z,3.80
2022-11-27T20:39:26.990Z,3.80
2022-11-27T20:41:59.795Z,3.80
2022-11-27T20:44:32.194Z,3.80
2022-11-27T20:47:07.102Z,3.80
2022-11-27T20:49:39.439Z,3.80
2022-11-27T20:52:15.946Z,3.80
2022-11-27T20:54:50.149Z,3.80
2022-11-27T20:57:23.395Z,3.80
2022-11-27T20:59:57.593Z,3.80
2022-11-27T21:02:30.150Z,3.80
2022-11-27T21:05:01.972Z,3.80
2022-11-27T21:07:39.998Z,3.80
2022-11-27T21:10:13.800Z,3.70
2022-11-27T21:12:49.004Z,3.80
2022-11-27T21:15:23.278Z,3.70
2022-11-27T21:17:55.253Z,3.70
2022-11-27T21:20:34.324Z,3.70
2022-11-27T21:23:06.095Z,3.70
2022-11-27T21:25:38.490Z,3.70
2022-11-27T21:28:14.571Z,3.60
2022-11-27T21:30:48.939Z,3.60
2022-11-27T21:33:21.226Z,3.60
2022-11-27T21:35:56.022Z,3.60
2022-11-27T21:38:27.832Z,3.60
2022-11-27T21:40:59.669Z,3.60
2022-11-27T21:43:34.740Z,3.60
2022-11-27T21:46:17.389Z,3.60
2022-11-27T21:48:50.903Z,3.60
2022-11-27T21:51:23.181Z,3.60
2022-11-27T21:53:56.079Z,3.60
2022-11-27T21:56:29.845Z,3.60
2022-11-27T21:59:04.464Z,3.60
2022-11-27T22:01:37.247Z,3.60
2022-11-27T22:04:09.246Z,3.60
2022-11-27T22:06:42.793Z,3.60
2022-11-27T22:09:15.916Z,3.60
2022-11-27T22:11:48.830Z,3.60
2022-11-27T22:14:20.726Z,3.60
2022-11-27T22:16:52.708Z,3.60
2022-11-27T22:19:26.588Z,3.60
2022-11-27T22:21:58.927Z,3.60
2022-11-27T22:24:30.670Z,3.60
2022-11-27T22:27:05.020Z,3.60
2022-11-27T22:29:36.733Z,3.60
2022-11-27T22:32:08.487Z,3.50
2022-11-27T22:34:40.536Z,3.50
2022-11-27T22:37:12.600Z,3.50
2022-11-27T22:39:44.624Z,3.50
2022-11-27T22:42:16.429Z,3.50
2022-11-27T22:44:48.241Z,3.40
2022-11-27T22:47:20.055Z,3.50
2022-11-27T22:49:51.815Z,3.40
2022-11-27T22:52:23.980Z,3.50
2022-11-27T22:54:55.839Z,3.40
2022-11-27T22:57:27.648Z,3.40
2022-11-27T23:00:02.009Z,3.40
2022-11-27T23:02:34.031Z,3.40
2022-11-27T23:05:05.911Z,3.40
2022-11-27T23:07:40.226Z,3.40
2022-11-27T23:10:12.242Z,3.40
2022-11-27T23:12:44.032Z,3.40
2022-11-27T23:15:15.771Z,3.40
2022-11-27T23:17:47.605Z,3.40
2022-11-27T23:20:19.339Z,3.40
2022-11-27T23:22:51.163Z,3.40
2022-11-27T23:25:23.112Z,3.40
2022-11-27T23:27:54.934Z,3.40
2022-11-27T23:30:26.702Z,3.40
2022-11-27T23:33:00.840Z,3.40
2022-11-27T23:35:32.637Z,3.30
2022-11-27T23:38:04.378Z,3.40
2022-11-27T23:40:36.127Z,3.30
2022-11-27T23:43:07.864Z,3.30
2022-11-27T23:45:39.621Z,3.20
2022-11-27T23:48:11.489Z,3.20
2022-11-27T23:50:43.239Z,3.20
2022-11-27T23:53:15.053Z,3.10
2022-11-27T23:55:46.775Z,3.10
2022-11-27T23:58:18.531Z,3.10
